Latest Weather Observations for Lake Grace

IDW60801

Issued at 1:35 pm WST Saturday 20 September 2014 (issued every 30 minutes, with the page automatically refreshed every 10 minutes)

About weather observations | Map of weather stations | Latest weather observations for WA | Other Formats
Station Details ID: 010911 Name: LAKE GRACE Lat: -33.10 Lon: 118.46 Height: 286.0 m
Data from the previous 72 hours. | See also: Recent months at Lake Grace
Date/Time
WST
Temp
°C
App
Temp
°C
Dew
Point
Rel
Hum
%
Delta-T
°C
Wind Press
QNH
hPa
Press
MSL
hPa
Rain
since 9 am
mm
Dir
 
Spd
km/h
Gust
km/h
Spd
kts
Gust
kts
20/01:31pm 30.1 23.6 6.7 23 12.7 N 30 48 16 26 1014.2 1014.1 0.0
20/01:30pm 29.9 23.0 6.5 23 12.6 N 32 48 17 26 1014.1 1014.0 0.0
20/01:02pm 29.2 22.9 7.2 25 12.0 NNE 30 50 16 27 1014.6 1014.5 0.0
20/01:00pm 29.6 23.7 7.5 25 12.1 NNE 28 41 15 22 1014.7 1014.6 0.0
20/12:30pm 28.5 22.8 8.2 28 11.2 NNE 28 43 15 23 1015.2 1015.1 0.0
20/12:00pm 27.7 22.4 8.6 30 10.6 NNE 26 41 14 22 1015.9 1015.8 0.0
20/11:30am 26.9 22.2 9.3 33 9.8 NNE 24 39 13 21 1016.4 1016.3 0.0
20/11:00am 25.0 20.3 9.3 37 8.7 N 24 41 13 22 1017.1 1017.0 0.0
20/10:30am 23.6 19.6 10.3 43 7.4 NNE 22 33 12 18 1017.4 1017.3 0.0
20/10:00am 21.8 17.1 10.6 49 6.2 NNE 26 43 14 23 1018.1 1018.0 0.0
20/09:30am 20.3 15.9 10.4 53 5.4 NNE 24 39 13 21 1018.6 1018.5 0.0
20/09:00am 19.1 15.5 10.6 58 4.6 NNE 20 33 11 18 1019.0 1018.9 0.0
20/08:30am 17.4 13.6 11.2 67 3.4 NE 22 33 12 18 1019.3 1019.2 0.0
20/08:00am 15.7 13.4 11.7 77 2.2 NNE 15 24 8 13 1019.6 1019.5 0.0
20/07:30am 13.6 11.4 10.9 84 1.4 NE 13 22 7 12 1019.8 1019.8 0.0
20/07:00am 12.3 10.0 10.4 88 1.0 NE 13 20 7 11 1019.8 1019.8 0.0
20/06:30am 11.4 9.0 10.0 91 0.7 NE 13 15 7 8 1019.9 1019.9 0.0
20/06:00am 11.0 9.2 9.6 91 0.7 NE 9 17 5 9 1020.2 1020.2 0.0
20/05:30am 11.2 8.7 9.8 91 0.7 NE 13 20 7 11 1020.0 1020.0 0.0
20/05:00am 11.1 9.0 9.7 91 0.7 ENE 11 20 6 11 1019.9 1019.9 0.0
20/04:30am 11.0 8.5 9.6 91 0.7 ENE 13 17 7 9 1019.8 1019.8 0.0
20/04:00am 11.4 9.3 9.8 90 0.8 NE 11 17 6 9 1020.0 1020.0 0.0
20/03:30am 11.7 8.5 9.9 89 0.9 ENE 17 24 9 13 1019.9 1019.9 0.0
20/03:00am 12.1 8.4 10.2 88 1.0 ENE 20 32 11 17 1019.8 1019.8 0.0
20/02:30am 12.4 8.0 10.5 88 1.0 E 24 33 13 18 1019.7 1019.7 0.0
20/02:00am 12.4 8.4 10.6 89 0.9 E 22 32 12 17 1020.1 1020.1 0.0
20/01:30am 12.5 8.6 10.9 90 0.8 E 22 28 12 15 1020.4 1020.4 0.0
20/01:00am 12.9 8.8 11.3 90 0.9 E 24 33 13 18 1020.8 1020.7 0.0
20/12:30am 13.1 9.0 11.3 89 1.0 E 24 39 13 21 1020.9 1020.8 0.0
20/12:00am 13.3 9.6 11.5 89 1.0 E 22 30 12 16 1021.2 1021.1 0.0
 
Date/Time
WST
Temp
°C
App
Temp
°C
Dew
Point
Rel
Hum
%
Delta-T
°C
Wind Press
QNH
hPa
Press
MSL
hPa
Rain
since 9 am
mm
Dir
 
Spd
km/h
Gust
km/h
Spd
kts
Gust
kts
19/11:30pm 13.8 10.7 11.7 87 1.1 E 19 30 10 16 1021.4 1021.3 0.0
19/11:00pm 14.1 11.1 11.8 86 1.2 E 19 26 10 14 1021.6 1021.5 0.0
19/10:30pm 14.2 11.1 11.7 85 1.4 ESE 19 30 10 16 1021.7 1021.6 0.0
19/10:00pm 14.5 11.8 11.8 84 1.5 ESE 17 24 9 13 1022.1 1022.0 0.0
19/09:30pm 15.2 12.6 12.0 81 1.8 ESE 17 24 9 13 1022.3 1022.2 0.0
19/09:00pm 15.8 13.6 12.2 79 2.0 ESE 15 24 8 13 1022.2 1022.1 0.0
19/08:30pm 15.9 13.8 11.1 73 2.6 SE 13 19 7 10 1022.2 1022.1 0.0
19/08:00pm 16.7 15.0 9.9 64 3.6 SE 9 11 5 6 1022.0 1021.9 0.0
19/07:30pm 17.6 16.0 10.2 62 4.0 SE 9 11 5 6 1021.8 1021.7 0.0
19/07:00pm 18.0 16.9 9.9 59 4.3 SSE 6 7 3 4 1021.6 1021.5 0.0
19/06:30pm 19.3 18.1 9.5 53 5.3 SSE 6 9 3 5 1021.3 1021.2 0.0
19/06:00pm 20.6 18.7 9.2 48 6.1 S 9 11 5 6 1021.2 1021.1 0.0
19/05:30pm 21.9 20.4 9.1 44 6.9 S 7 11 4 6 1020.9 1020.8 0.0
19/05:00pm 22.3 20.7 8.8 42 7.3 SSE 7 13 4 7 1020.7 1020.6 0.0
19/04:30pm 22.8 20.9 8.9 41 7.5 SSE 9 15 5 8 1020.4 1020.4 0.0
19/04:00pm 22.9 20.7 9.3 42 7.4 SSW 11 15 6 8 1020.4 1020.4 0.0
19/03:30pm 23.1 21.0 9.8 43 7.3 S 11 20 6 11 1020.4 1020.4 0.0
19/03:00pm 22.8 20.2 9.2 42 7.4 S 13 19 7 10 1020.4 1020.4 0.0
19/02:30pm 23.2 21.4 10.9 46 6.9 S 11 20 6 11 1020.6 1020.5 0.0
19/02:00pm 22.8 21.2 10.3 45 6.9 S 9 17 5 9 1020.7 1020.6 0.0
19/01:30pm 22.1 19.8 10.3 47 6.5 SSW 13 20 7 11 1020.9 1020.8 0.0
19/01:00pm 21.7 20.0 11.1 51 5.9 SSW 11 19 6 10 1021.3 1021.2 0.0
19/12:30pm 20.8 19.2 11.7 56 5.1 S 11 19 6 10 1021.6 1021.5 0.0
19/12:00pm 20.3 18.9 12.3 60 4.5 SSW 11 19 6 10 1021.9 1021.8 0.0
19/11:30am 19.3 18.2 12.1 63 4.1 SSW 9 17 5 9 1022.4 1022.3 0.0
19/11:00am 18.6 17.3 12.4 67 3.5 SW 11 19 6 10 1022.4 1022.3 0.0
19/10:30am 18.2 16.9 12.6 70 3.2 SSE 11 17 6 9 1022.7 1022.7 0.0
19/10:00am 16.9 15.1 12.2 74 2.6 S 13 19 7 10 1023.1 1023.1 0.0
19/09:30am 16.8 14.6 12.1 74 2.6 S 15 26 8 14 1023.1 1023.1 0.0
19/09:00am 16.2 14.0 12.2 77 2.2 S 15 24 8 13 1022.9 1022.9 0.0
19/08:30am 15.0 13.1 11.8 81 1.8 SSW 13 19 7 10 1022.8 1022.8 0.0
19/08:00am 13.4 11.8 11.5 88 1.0 SSW 11 15 6 8 1022.5 1022.4 0.0
19/07:30am 12.6 10.9 11.3 92 0.7 S 11 17 6 9 1022.4 1022.3 0.0
19/07:00am 11.3 10.1 10.4 94 0.5 S 7 11 4 6 1022.2 1022.1 0.0
19/06:30am 9.9 8.5 8.8 93 0.5 S 6 7 3 4 1021.9 1021.8 0.0
19/06:00am 9.5 8.0 8.4 93 0.5 S 6 7 3 4 1021.6 1021.5 0.0
19/05:30am 10.2 9.2 9.0 92 0.6 S 4 7 2 4 1021.0 1020.9 0.0
19/05:00am 10.5 10.4 9.3 92 0.6 CALM 0 0 0 0 1020.6 1020.5 0.0
19/04:30am 11.0 9.8 9.6 91 0.7 S 6 9 3 5 1020.2 1020.2 0.0
19/04:00am 11.7 10.2 10.4 92 0.7 SSW 9 13 5 7 1020.2 1020.2 0.0
19/03:30am 11.7 10.5 10.3 91 0.7 S 7 11 4 6 1020.2 1020.2 0.0
19/03:00am 11.6 11.7 10.0 90 0.8 CALM 0 6 0 3 1019.9 1019.9 0.0
19/02:30am 12.1 11.2 10.5 90 0.8 S 6 9 3 5 1019.8 1019.8 0.0
19/02:00am 12.0 10.5 10.4 90 0.8 SW 9 11 5 6 1019.9 1019.9 0.0
19/01:30am 12.1 10.6 10.5 90 0.8 WSW 9 15 5 8 1019.8 1019.8 0.0
19/01:00am 10.5 9.5 8.8 89 0.8 S 4 11 2 6 1019.7 1019.7 0.0
19/12:30am 12.1 12.2 10.2 88 1.0 CALM 0 0 0 0 1019.5 1019.4 0.0
19/12:00am 12.5 11.5 10.2 86 1.2 S 6 6 3 3 1019.1 1019.0 0.0
 
Date/Time
WST
Temp
°C
App
Temp
°C
Dew
Point
Rel
Hum
%
Delta-T
°C
Wind Press
QNH
hPa
Press
MSL
hPa
Rain
since 9 am
mm
Dir
 
Spd
km/h
Gust
km/h
Spd
kts
Gust
kts
18/11:30pm 13.2 12.3 10.7 85 1.3 S 6 9 3 5 1019.2 1019.1 0.0
18/11:00pm 13.6 12.5 10.6 82 1.6 S 7 9 4 5 1019.1 1019.0 0.0
18/10:30pm 14.3 13.2 10.7 79 1.9 S 7 9 4 5 1019.4 1019.3 0.0
18/10:00pm 15.1 13.6 10.5 74 2.5 S 9 13 5 7 1019.0 1018.9 0.0
18/09:30pm 16.0 14.1 10.5 70 3.0 S 11 17 6 9 1019.0 1018.9 0.0
18/09:00pm 17.0 15.9 10.8 67 3.4 SSW 7 9 4 5 1018.7 1018.6 0.0
18/08:30pm 18.0 16.7 11.1 64 3.8 SSW 9 13 5 7 1018.3 1018.2 0.0
18/08:00pm 18.5 16.4 11.1 62 4.1 SW 13 20 7 11 1017.9 1017.8 0.0
18/07:30pm 19.4 18.1 11.4 60 4.5 SW 9 17 5 9 1017.5 1017.4 0.0
18/07:00pm 20.1 18.4 11.1 56 5.0 SW 11 15 6 8 1017.2 1017.1 0.0
18/06:30pm 20.9 19.4 10.7 52 5.6 SW 9 17 5 9 1016.5 1016.4 0.0
18/06:00pm 21.8 20.3 10.6 49 6.2 SW 9 15 5 8 1016.2 1016.1 0.0
18/05:30pm 23.4 20.2 10.1 43 7.4 SW 17 24 9 13 1015.9 1015.8 0.0
18/05:00pm 24.3 21.6 9.1 38 8.3 SW 13 20 7 11 1015.2 1015.1 0.0
18/04:30pm 25.1 22.3 8.6 35 9.0 SW 13 20 7 11 1015.0 1014.9 0.0
18/04:00pm 25.8 22.8 7.9 32 9.7 SW 13 19 7 10 1014.9 1014.8 0.0
18/03:30pm 25.4 23.0 7.1 31 9.7 S 9 17 5 9 1014.8 1014.7 0.0
18/03:00pm 25.3 22.0 6.5 30 9.9 SSW 13 20 7 11 1014.7 1014.6 0.0
18/02:30pm 26.0 23.1 6.6 29 10.3 S 11 17 6 9 1014.9 1014.8 0.0
18/02:00pm 25.5 22.5 6.2 29 10.1 WSW 11 19 6 10 1014.9 1014.8 0.0
18/01:30pm 24.8 22.0 5.1 28 10.1 WSW 9 15 5 8 1015.0 1014.9 0.0
18/01:00pm 25.1 22.4 5.8 29 10.0 NNW 9 17 5 9 1015.4 1015.3 0.0
18/12:30pm 24.3 20.8 5.6 30 9.6 N 13 20 7 11 1015.8 1015.7 0.0
18/12:00pm 24.1 21.1 5.9 31 9.4 N 11 19 6 10 1016.3 1016.2 0.0
18/11:30am 23.6 20.3 6.4 33 8.9 NNW 13 20 7 11 1016.6 1016.5 0.0
18/11:00am 22.8 19.1 6.1 34 8.6 N 15 22 8 12 1017.0 1016.9 0.0
18/10:30am 22.0 17.5 6.3 36 8.1 N 19 28 10 15 1017.2 1017.1 0.0
18/10:00am 21.6 17.5 6.3 37 7.8 NNE 17 24 9 13 1017.2 1017.1 0.0
18/09:30am 21.1 16.7 6.6 39 7.5 NNE 19 32 10 17 1017.2 1017.1 0.0
18/09:00am 19.4 14.4 6.5 43 6.5 NE 22 32 12 17 1017.2 1017.1 0.0
18/08:30am 18.0 13.4 6.5 47 5.8 NE 20 32 11 17 1017.4 1017.3 0.0
18/08:00am 16.9 12.6 7.0 52 5.0 NE 19 26 10 14 1017.4 1017.3 0.0
18/07:30am 15.5 12.3 7.0 57 4.2 NE 13 20 7 11 1017.6 1017.5 0.0
18/07:00am 14.4 12.0 7.0 61 3.7 NE 9 15 5 8 1017.4 1017.3 0.0
18/06:30am 12.3 10.2 6.8 69 2.7 NNE 7 11 4 6 1017.2 1017.1 0.0
18/06:00am 13.0 10.9 6.6 65 3.1 NE 7 11 4 6 1017.0 1016.9 0.0
18/05:30am 13.3 10.8 6.6 64 3.3 NE 9 15 5 8 1016.7 1016.7 0.0
18/05:00am 13.4 11.5 6.5 63 3.4 NNE 6 15 3 8 1016.9 1016.8 0.0
18/04:30am 14.1 10.9 6.7 61 3.6 NE 13 22 7 12 1016.3 1016.2 0.0
18/04:00am 14.6 10.0 6.4 58 4.0 ENE 20 35 11 19 1016.1 1016.0 0.0
18/03:30am 15.1 10.5 6.4 56 4.3 E 20 30 11 16 1015.8 1015.7 0.0
18/03:00am 14.9 11.2 6.2 56 4.2 ENE 15 22 8 12 1016.2 1016.1 0.0
18/02:30am 14.1 11.6 6.5 60 3.7 ENE 9 15 5 8 1016.3 1016.2 0.0
18/02:00am 12.5 10.5 6.3 66 3.0 SW 6 7 3 4 1016.4 1016.3 0.0
18/01:30am 12.6 10.6 6.2 65 3.1 S 6 9 3 5 1016.5 1016.4 0.0
18/01:00am 12.6 10.7 6.6 67 2.9 SE 6 9 3 5 1016.6 1016.5 0.0
18/12:30am 13.2 11.3 6.8 65 3.1 SSW 6 9 3 5 1016.9 1016.8 0.0
18/12:00am 13.3 11.6 7.5 68 2.9 SSW 6 9 3 5 1016.9 1016.8 0.0
 
Date/Time
WST
Temp
°C
App
Temp
°C
Dew
Point
Rel
Hum
%
Delta-T
°C
Wind Press
QNH
hPa
Press
MSL
hPa
Rain
since 9 am
mm
Dir
 
Spd
km/h
Gust
km/h
Spd
kts
Gust
kts
17/11:30pm 13.3 12.1 8.2 71 2.6 S 4 6 2 3 1017.0 1016.9 0.0
17/11:00pm 13.3 11.6 8.4 72 2.5 S 7 9 4 5 1017.0 1016.9 0.0
17/10:30pm 16.9 14.1 7.0 52 5.0 ESE 11 19 6 10 1016.9 1016.8 0.0
17/10:00pm 16.8 13.7 7.4 54 4.8 ESE 13 19 7 10 1017.0 1016.9 0.0
17/09:30pm 16.0 13.1 8.0 59 4.1 SE 13 22 7 12 1017.2 1017.1 0.0
17/09:00pm 17.5 14.5 7.5 52 5.1 ESE 13 19 7 10 1017.0 1016.9 0.0
17/08:30pm 16.4 14.1 8.9 61 3.9 SE 11 17 6 9 1017.1 1017.0 0.0
17/08:00pm 17.3 14.6 9.0 58 4.4 SE 13 17 7 9 1017.0 1016.9 0.0
17/07:30pm 18.0 15.3 8.8 55 4.8 SE 13 19 7 10 1016.4 1016.3 0.0
17/07:00pm 19.8 16.8 7.5 45 6.4 SE 13 19 7 10 1016.4 1016.3 0.0
17/06:30pm 19.2 17.0 9.4 53 5.2 ESE 11 17 6 9 1016.0 1015.9 0.0
17/06:00pm 19.8 18.4 10.8 56 5.0 SSE 9 13 5 7 1015.7 1015.6 0.0
17/05:30pm 20.8 19.1 10.0 50 5.9 SE 9 13 5 7 1015.4 1015.3 0.0
17/05:00pm 21.8 19.5 9.0 44 6.9 SE 11 15 6 8 1015.2 1015.1 0.0
17/04:30pm 22.4 20.4 8.5 41 7.5 SE 9 13 5 7 1015.0 1014.9 0.0
17/04:00pm 23.3 20.5 7.0 35 8.6 SE 11 15 6 8 1015.0 1014.9 0.0
17/03:30pm 23.8 21.8 7.0 34 8.8 ESE 7 11 4 6 1014.9 1014.8 0.0
17/03:00pm 23.8 21.6 6.1 32 9.2 E 7 13 4 7 1014.9 1014.8 0.0
17/02:30pm 24.0 22.6 7.2 34 8.9 ESE 4 7 2 4 1015.0 1014.9 0.0
17/02:00pm 23.7 21.3 6.9 34 8.8 ENE 9 13 5 7 1015.2 1015.1 0.0

Other Formats:

Comma delimited format used in spreadsheet applications
http://www.bom.gov.au/fwo/IDW60801/IDW60801.95637.axf

JavaScript Object Notation format (JSON) in row-major order
http://www.bom.gov.au/fwo/IDW60801/IDW60801.95637.json